createdAt,value
2017-08-14T00:02:00.300Z,2.70
2017-08-14T00:04:28.062Z,2.67
2017-08-14T00:06:56.031Z,2.50
2017-08-14T00:09:23.805Z,2.93
2017-08-14T00:11:51.763Z,2.43
2017-08-14T00:14:19.453Z,2.90
2017-08-14T00:16:47.133Z,2.20
2017-08-14T00:19:15.675Z,2.40
2017-08-14T00:21:43.439Z,2.20
2017-08-14T00:24:11.218Z,2.73
2017-08-14T00:26:38.965Z,2.53
2017-08-14T00:29:06.728Z,2.23
2017-08-14T00:31:34.391Z,2.20
2017-08-14T00:34:02.159Z,2.53
2017-08-14T00:36:30.024Z,2.20
2017-08-14T00:38:57.807Z,2.00
2017-08-14T00:41:25.568Z,1.93
2017-08-14T00:43:53.340Z,3.97
2017-08-14T00:46:21.079Z,2.10
2017-08-14T00:48:48.759Z,2.23
2017-08-14T00:51:16.420Z,2.10
2017-08-14T00:53:44.271Z,3.00
2017-08-14T00:56:12.032Z,2.93
2017-08-14T00:58:39.659Z,2.10
2017-08-14T01:01:07.383Z,2.10
2017-08-14T01:03:35.223Z,2.23
2017-08-14T01:06:02.881Z,2.53
2017-08-14T01:08:30.647Z,2.50
2017-08-14T01:10:58.415Z,2.40
2017-08-14T01:13:26.098Z,2.50
2017-08-14T01:15:53.859Z,2.07
2017-08-14T01:18:21.486Z,1.90
2017-08-14T01:20:49.179Z,2.23
2017-08-14T01:23:16.948Z,2.10
2017-08-14T01:25:44.691Z,2.23
2017-08-14T01:28:12.326Z,2.00
2017-08-14T01:30:39.990Z,1.77
2017-08-14T01:33:07.618Z,2.17
2017-08-14T01:35:36.057Z,2.13
2017-08-14T01:38:03.686Z,2.20
2017-08-14T01:40:31.479Z,2.03
2017-08-14T01:42:59.244Z,2.47
2017-08-14T01:45:26.957Z,2.30
2017-08-14T01:47:54.695Z,2.30
2017-08-14T01:50:22.355Z,2.23
2017-08-14T01:52:50.030Z,2.00
2017-08-14T01:55:18.514Z,2.40
2017-08-14T01:57:47.059Z,2.30
2017-08-14T02:00:14.825Z,2.57
2017-08-14T02:02:42.690Z,2.50
2017-08-14T02:05:10.455Z,2.70
2017-08-14T02:07:38.220Z,2.00
2017-08-14T02:10:05.981Z,2.17
2017-08-14T02:12:33.645Z,2.00
2017-08-14T02:15:01.512Z,1.93
2017-08-14T02:17:29.275Z,2.07
2017-08-14T02:19:57.039Z,1.70
2017-08-14T02:22:24.804Z,1.97
2017-08-14T02:24:52.569Z,1.73
2017-08-14T02:27:20.330Z,1.97
2017-08-14T02:29:48.096Z,1.73
2017-08-14T02:32:15.862Z,2.80
2017-08-14T02:34:43.547Z,2.13
2017-08-14T02:37:11.295Z,1.63
2017-08-14T02:39:38.982Z,1.90
2017-08-14T02:42:07.378Z,2.20
2017-08-14T02:44:35.908Z,1.90
2017-08-14T02:47:03.597Z,1.63
2017-08-14T02:49:31.338Z,2.50
2017-08-14T02:51:58.999Z,2.20
2017-08-14T02:54:26.679Z,1.83
2017-08-14T02:56:54.343Z,2.27
2017-08-14T02:59:22.190Z,2.00
2017-08-14T03:01:49.872Z,2.00
2017-08-14T03:04:17.616Z,2.00
2017-08-14T03:06:45.298Z,2.10
2017-08-14T03:09:13.044Z,1.57
2017-08-14T03:11:40.806Z,1.83
2017-08-14T03:14:08.672Z,1.90
2017-08-14T03:16:36.302Z,2.57
2017-08-14T03:19:03.927Z,2.17
2017-08-14T03:21:31.659Z,2.17
2017-08-14T03:23:59.422Z,2.10
2017-08-14T03:26:27.289Z,2.07
2017-08-14T03:28:55.054Z,1.77
2017-08-14T03:31:22.737Z,2.07
2017-08-14T03:33:50.500Z,2.30
2017-08-14T03:36:18.241Z,2.23
2017-08-14T03:38:46.811Z,2.00
2017-08-14T03:41:14.692Z,2.20
2017-08-14T03:43:42.457Z,2.20
2017-08-14T03:46:10.220Z,2.30
2017-08-14T03:48:37.898Z,2.10
2017-08-14T03:51:05.647Z,2.37
2017-08-14T03:53:33.287Z,1.90
2017-08-14T03:56:01.073Z,2.20
2017-08-14T03:58:28.837Z,2.23
2017-08-14T04:00:56.601Z,2.53
2017-08-14T04:03:24.399Z,1.90
2017-08-14T04:05:52.128Z,2.07
2017-08-14T04:08:19.830Z,2.20
2017-08-14T04:10:48.387Z,1.87
2017-08-14T04:13:16.139Z,2.70
2017-08-14T04:15:43.906Z,1.90
2017-08-14T04:18:11.666Z,2.27
2017-08-14T04:20:39.434Z,1.80
2017-08-14T04:23:07.299Z,1.77
2017-08-14T04:25:34.959Z,2.23
2017-08-14T04:28:02.731Z,2.83
2017-08-14T04:30:30.598Z,2.30
2017-08-14T04:32:58.356Z,2.17
2017-08-14T04:35:26.121Z,2.43
2017-08-14T04:37:53.779Z,2.60
2017-08-14T04:40:21.443Z,2.37
2017-08-14T04:42:49.127Z,4.80
2017-08-14T04:45:16.870Z,3.07
2017-08-14T04:47:44.634Z,3.23
2017-08-14T04:50:12.307Z,3.23
2017-08-14T04:52:40.059Z,3.50
2017-08-14T04:55:07.691Z,2.33
2017-08-14T04:57:35.386Z,3.30
2017-08-14T05:00:03.043Z,3.07
2017-08-14T05:02:30.914Z,3.07
2017-08-14T05:04:58.579Z,2.70
2017-08-14T05:07:26.339Z,3.00
2017-08-14T05:09:54.003Z,3.10
2017-08-14T05:12:21.764Z,2.13
2017-08-14T05:14:49.629Z,1.93
2017-08-14T05:17:17.395Z,2.07
2017-08-14T05:19:45.160Z,3.00
2017-08-14T05:22:13.026Z,2.60
2017-08-14T05:24:40.789Z,2.83
2017-08-14T05:27:08.556Z,2.47
2017-08-14T05:29:36.318Z,2.20
2017-08-14T05:32:03.966Z,3.03
2017-08-14T05:34:31.746Z,3.03
2017-08-14T05:36:59.510Z,3.03
2017-08-14T05:39:27.132Z,2.23
2017-08-14T05:41:54.860Z,2.80
2017-08-14T05:44:22.701Z,3.30
2017-08-14T05:46:50.391Z,3.33
2017-08-14T05:49:18.158Z,4.00
2017-08-14T05:51:45.827Z,2.80
2017-08-14T05:54:14.269Z,2.20
2017-08-14T05:56:42.032Z,2.90
2017-08-14T05:59:09.795Z,3.37
2017-08-14T06:01:37.875Z,3.53
2017-08-14T06:04:07.063Z,3.03
2017-08-14T06:06:34.859Z,2.67
2017-08-14T06:09:02.550Z,2.80
2017-08-14T06:11:30.356Z,3.83
2017-08-14T06:13:58.039Z,3.40
2017-08-14T06:16:25.782Z,3.20
2017-08-14T06:18:53.410Z,3.40
2017-08-14T06:21:21.221Z,4.70
2017-08-14T06:23:48.976Z,3.77
2017-08-14T06:26:16.739Z,2.33
2017-08-14T06:28:44.547Z,3.83
2017-08-14T06:31:12.292Z,4.57
2017-08-14T06:33:40.135Z,3.43
2017-08-14T06:36:07.905Z,4.10
2017-08-14T06:38:35.771Z,4.37
2017-08-14T06:41:03.532Z,4.27
2017-08-14T06:43:31.396Z,4.33
2017-08-14T06:45:59.042Z,4.70
2017-08-14T06:48:26.739Z,5.23
2017-08-14T06:50:54.583Z,4.23
2017-08-14T06:53:22.350Z,4.63
2017-08-14T06:55:50.112Z,3.90
2017-08-14T06:58:17.982Z,3.57
2017-08-14T07:00:45.745Z,4.03
2017-08-14T07:03:13.404Z,3.70
2017-08-14T07:05:41.097Z,3.77
2017-08-14T07:08:08.836Z,3.17
2017-08-14T07:10:36.600Z,3.07
2017-08-14T07:13:04.365Z,2.80
2017-08-14T07:15:32.028Z,2.43
2017-08-14T07:17:59.681Z,2.70
2017-08-14T07:20:27.362Z,2.20
2017-08-14T07:22:55.110Z,2.70
2017-08-14T07:25:22.995Z,2.17
2017-08-14T07:27:51.562Z,1.90
2017-08-14T07:30:19.325Z,1.73
2017-08-14T07:32:47.193Z,2.07
2017-08-14T07:35:14.823Z,1.70
2017-08-14T07:37:42.618Z,1.50
2017-08-14T07:40:10.487Z,1.20
2017-08-14T07:42:38.128Z,2.33
2017-08-14T07:45:05.908Z,2.23
2017-08-14T07:47:33.593Z,2.00
2017-08-14T07:50:01.337Z,1.60
2017-08-14T07:52:29.100Z,1.80
2017-08-14T07:54:56.969Z,1.57
2017-08-14T07:57:24.732Z,1.40
2017-08-14T07:59:52.497Z,1.70
2017-08-14T08:02:20.261Z,1.67
2017-08-14T08:04:47.923Z,1.87
2017-08-14T08:07:15.789Z,1.23
2017-08-14T08:09:43.553Z,1.33
2017-08-14T08:12:11.320Z,1.60
2017-08-14T08:14:39.082Z,1.27
2017-08-14T08:17:06.764Z,1.53
2017-08-14T08:19:34.440Z,1.83
2017-08-14T08:22:02.889Z,1.50
2017-08-14T08:24:30.678Z,1.60
2017-08-14T08:26:58.516Z,1.10
2017-08-14T08:29:26.283Z,1.83
2017-08-14T08:31:53.976Z,1.50
2017-08-14T08:34:22.526Z,1.70
2017-08-14T08:36:50.219Z,2.00
2017-08-14T08:39:17.951Z,1.50
2017-08-14T08:41:45.718Z,1.73
2017-08-14T08:44:13.483Z,1.77
2017-08-14T08:46:41.242Z,1.50
2017-08-14T08:49:08.923Z,1.63
2017-08-14T08:51:36.668Z,2.00
2017-08-14T08:54:04.356Z,1.30
2017-08-14T08:56:32.011Z,1.60
2017-08-14T08:58:59.860Z,1.50
2017-08-14T09:01:27.482Z,1.50
2017-08-14T09:03:55.289Z,1.40
2017-08-14T09:06:23.153Z,1.67
2017-08-14T09:08:50.919Z,1.30
2017-08-14T09:11:18.682Z,1.67
2017-08-14T09:13:46.444Z,1.80
2017-08-14T09:16:14.208Z,1.37
2017-08-14T09:18:42.077Z,2.30
2017-08-14T09:21:09.761Z,1.80
2017-08-14T09:23:37.503Z,1.90
2017-08-14T09:26:05.159Z,1.57
2017-08-14T09:28:32.843Z,1.40
2017-08-14T09:31:00.695Z,1.67
2017-08-14T09:33:28.455Z,1.83
2017-08-14T09:35:56.175Z,2.27
2017-08-14T09:38:23.888Z,1.60
2017-08-14T09:40:51.578Z,1.17
2017-08-14T09:43:19.312Z,1.43
2017-08-14T09:45:47.184Z,1.33
2017-08-14T09:48:14.869Z,1.30
2017-08-14T09:50:42.708Z,1.37
2017-08-14T09:53:10.335Z,1.30
2017-08-14T09:55:37.993Z,1.30
2017-08-14T09:58:05.673Z,1.50
2017-08-14T10:00:33.313Z,1.50
2017-08-14T10:03:01.116Z,1.50
2017-08-14T10:05:29.189Z,1.20
2017-08-14T10:07:56.821Z,1.40
2017-08-14T10:10:24.450Z,1.83
2017-08-14T10:12:52.992Z,1.67
2017-08-14T10:15:20.759Z,2.33
2017-08-14T10:17:48.444Z,1.60
2017-08-14T10:20:16.208Z,1.30
2017-08-14T10:22:43.947Z,1.47
2017-08-14T10:25:11.619Z,1.67
2017-08-14T10:27:39.474Z,1.23
2017-08-14T10:30:07.138Z,1.20
2017-08-14T10:32:35.005Z,1.73
2017-08-14T10:35:02.665Z,1.27
2017-08-14T10:37:30.431Z,1.20
2017-08-14T10:39:58.197Z,1.77
2017-08-14T10:42:26.060Z,1.30
2017-08-14T10:44:53.823Z,1.60
2017-08-14T10:47:21.587Z,1.30
2017-08-14T10:49:49.277Z,1.20
2017-08-14T10:52:17.037Z,1.63
2017-08-14T10:54:44.780Z,1.40
2017-08-14T10:57:12.465Z,1.23
2017-08-14T10:59:40.229Z,1.40
2017-08-14T11:02:07.889Z,1.37
2017-08-14T11:04:35.567Z,1.27
2017-08-14T11:07:03.292Z,1.30
2017-08-14T11:09:30.988Z,1.00
2017-08-14T11:11:58.739Z,1.53
2017-08-14T11:14:26.398Z,1.80
2017-08-14T11:16:54.150Z,1.50
2017-08-14T11:19:22.024Z,1.40
2017-08-14T11:21:49.997Z,1.57
2017-08-14T11:24:17.848Z,1.30
2017-08-14T11:26:45.735Z,1.00
2017-08-14T11:29:13.594Z,1.20
2017-08-14T11:31:41.461Z,1.10
2017-08-14T11:34:09.335Z,1.40
2017-08-14T11:36:37.198Z,1.20
2017-08-14T11:39:04.997Z,1.20
2017-08-14T11:41:32.711Z,0.93
2017-08-14T11:44:00.470Z,1.37
2017-08-14T11:46:28.346Z,1.20
2017-08-14T11:48:56.205Z,1.27
2017-08-14T11:51:24.092Z,1.43
2017-08-14T11:56:16.020Z,1.10
2017-08-14T11:58:43.895Z,1.23
2017-08-14T12:01:11.750Z,1.00
2017-08-14T12:03:39.634Z,1.30
2017-08-14T12:06:07.498Z,1.13
2017-08-14T12:08:35.361Z,1.23
2017-08-14T12:11:03.235Z,1.30
2017-08-14T12:13:31.096Z,1.30
2017-08-14T12:15:58.908Z,1.20
2017-08-14T12:18:26.713Z,1.70
2017-08-14T12:20:54.478Z,1.43
2017-08-14T12:23:22.299Z,1.60
2017-08-14T12:25:50.111Z,1.10
2017-08-14T12:28:17.977Z,1.10
2017-08-14T12:30:45.759Z,1.37
2017-08-14T12:33:13.458Z,1.60
2017-08-14T12:35:41.488Z,1.40
2017-08-14T12:38:09.369Z,1.40
2017-08-14T12:40:37.208Z,1.40
2017-08-14T12:43:04.970Z,1.30
2017-08-14T12:45:32.694Z,1.50
2017-08-14T12:48:00.600Z,1.40
2017-08-14T12:50:28.364Z,1.77
2017-08-14T12:52:56.251Z,1.13
2017-08-14T12:55:24.123Z,1.50
2017-08-14T12:57:51.990Z,1.57
2017-08-14T13:00:19.846Z,1.43
2017-08-14T13:02:47.629Z,1.70
2017-08-14T13:05:15.474Z,1.47
2017-08-14T13:07:43.347Z,1.43
2017-08-14T13:10:11.093Z,1.60
2017-08-14T13:12:38.926Z,1.13
2017-08-14T13:15:06.737Z,1.50
2017-08-14T13:17:34.453Z,1.23
2017-08-14T13:20:02.137Z,1.57
2017-08-14T13:22:29.967Z,1.13
2017-08-14T13:24:58.507Z,2.00
2017-08-14T13:27:26.274Z,1.33
2017-08-14T13:29:54.150Z,1.33
2017-08-14T13:32:22.014Z,1.30
2017-08-14T13:34:51.887Z,1.13
2017-08-14T13:37:19.899Z,1.40
2017-08-14T13:39:47.765Z,1.60
2017-08-14T13:42:15.635Z,1.30
2017-08-14T13:44:43.501Z,1.23
2017-08-14T13:47:11.350Z,1.40
2017-08-14T13:49:39.218Z,1.27
2017-08-14T13:52:06.977Z,1.57
2017-08-14T13:54:34.739Z,1.60
2017-08-14T13:57:02.420Z,1.43
2017-08-14T13:59:30.206Z,1.40
2017-08-14T14:01:57.933Z,1.43
2017-08-14T14:04:25.696Z,1.80
2017-08-14T14:06:53.410Z,1.50
2017-08-14T14:09:21.855Z,1.37
2017-08-14T14:11:49.623Z,2.00
2017-08-14T14:14:17.264Z,2.40
2017-08-14T14:16:45.130Z,2.60
2017-08-14T14:19:12.911Z,2.10
2017-08-14T14:21:40.780Z,2.30
2017-08-14T14:24:08.578Z,1.97
2017-08-14T14:26:37.216Z,1.70
2017-08-14T14:29:05.095Z,2.20
2017-08-14T14:31:32.858Z,1.93
2017-08-14T14:34:00.605Z,2.00
2017-08-14T14:36:28.474Z,2.10
2017-08-14T14:38:56.338Z,1.73
2017-08-14T14:41:24.122Z,2.47
2017-08-14T14:43:51.995Z,2.00
2017-08-14T14:46:19.854Z,1.93
2017-08-14T14:48:47.728Z,3.07
2017-08-14T14:51:15.596Z,2.07
2017-08-14T14:53:43.440Z,2.40
2017-08-14T14:56:11.202Z,2.07
2017-08-14T14:58:38.964Z,2.17
2017-08-14T15:01:06.732Z,2.10
2017-08-14T15:03:34.566Z,2.10
2017-08-14T15:06:02.314Z,2.43
2017-08-14T15:08:30.127Z,1.70
2017-08-14T15:10:57.910Z,2.00
2017-08-14T15:13:25.654Z,1.97
2017-08-14T15:15:53.353Z,2.10
2017-08-14T15:18:22.025Z,2.40
2017-08-14T15:20:56.309Z,2.30
2017-08-14T15:23:24.492Z,2.00
2017-08-14T15:25:52.484Z,2.23
2017-08-14T15:28:20.561Z,2.43
2017-08-14T15:30:48.414Z,2.63
2017-08-14T15:33:16.289Z,2.27
2017-08-14T15:35:44.254Z,2.23
2017-08-14T15:38:12.117Z,2.90
2017-08-14T15:40:40.085Z,2.30
2017-08-14T15:43:08.066Z,2.60
2017-08-14T15:45:36.028Z,2.50
2017-08-14T15:48:04.001Z,2.23
2017-08-14T15:50:32.078Z,2.53
2017-08-14T15:53:07.399Z,1.80
2017-08-14T15:55:36.817Z,2.17
2017-08-14T15:58:06.039Z,2.10
2017-08-14T16:00:35.110Z,2.23
2017-08-14T16:03:02.919Z,2.37
2017-08-14T16:05:31.940Z,2.47
2017-08-14T16:08:00.041Z,2.90
2017-08-14T16:10:30.982Z,2.10
2017-08-14T16:13:01.503Z,2.57
2017-08-14T16:15:32.987Z,2.47
2017-08-14T16:18:01.698Z,2.90
2017-08-14T16:20:31.253Z,2.70
2017-08-14T16:23:00.137Z,1.93
2017-08-14T16:25:28.457Z,2.60
2017-08-14T16:27:56.286Z,2.63
2017-08-14T16:30:24.359Z,2.50
2017-08-14T16:32:52.332Z,2.70
2017-08-14T16:35:20.186Z,2.87
2017-08-14T16:37:48.059Z,2.40
2017-08-14T16:40:16.028Z,2.50
2017-08-14T16:42:43.897Z,2.27
2017-08-14T16:45:11.967Z,2.20
2017-08-14T16:47:39.930Z,2.97
2017-08-14T16:50:08.015Z,2.10
2017-08-14T16:52:35.870Z,2.80
2017-08-14T16:55:03.656Z,2.57
2017-08-14T16:57:31.457Z,2.80
2017-08-14T16:59:59.369Z,2.97
2017-08-14T17:02:27.232Z,2.40
2017-08-14T17:04:55.099Z,2.83
2017-08-14T17:07:23.072Z,2.40
2017-08-14T17:09:50.935Z,2.97
2017-08-14T17:12:18.806Z,2.90
2017-08-14T17:14:46.667Z,2.60
2017-08-14T17:17:14.539Z,2.60
2017-08-14T17:19:42.401Z,2.80
2017-08-14T17:22:10.270Z,2.40
2017-08-14T17:24:38.133Z,2.50
2017-08-14T17:27:06.108Z,3.07
2017-08-14T17:29:34.076Z,2.60
2017-08-14T17:32:01.836Z,2.43
2017-08-14T17:34:29.680Z,2.80
2017-08-14T17:36:57.578Z,2.87
2017-08-14T17:39:26.979Z,2.77
2017-08-14T17:41:55.631Z,3.00
2017-08-14T17:44:23.528Z,2.73
2017-08-14T17:46:51.286Z,3.20
2017-08-14T17:49:18.958Z,2.77
2017-08-14T17:51:46.699Z,2.90
2017-08-14T17:54:14.467Z,2.80
2017-08-14T17:56:42.232Z,2.90
2017-08-14T17:59:10.102Z,2.87
2017-08-14T18:01:37.861Z,2.37
2017-08-14T18:04:05.627Z,3.10
2017-08-14T18:06:33.259Z,3.30
2017-08-14T18:09:00.890Z,2.63
2017-08-14T18:11:29.432Z,2.33
2017-08-14T18:13:57.195Z,2.50
2017-08-14T18:16:24.960Z,3.00
2017-08-14T18:18:52.828Z,2.83
2017-08-14T18:21:20.520Z,2.60
2017-08-14T18:23:48.353Z,2.80
2017-08-14T18:26:16.121Z,2.50
2017-08-14T18:28:43.755Z,2.77
2017-08-14T18:31:11.546Z,2.80
2017-08-14T18:33:39.223Z,3.00
2017-08-14T18:36:07.075Z,2.77
2017-08-14T18:38:34.838Z,2.50
2017-08-14T18:41:02.603Z,2.63
2017-08-14T18:43:30.368Z,3.00
2017-08-14T18:45:58.463Z,3.10
2017-08-14T18:48:26.738Z,5.30
2017-08-14T18:50:54.702Z,2.80
2017-08-14T18:53:22.573Z,2.93
2017-08-14T18:55:50.643Z,2.70
2017-08-14T18:58:18.808Z,3.47
2017-08-14T19:00:49.053Z,2.80
2017-08-14T19:03:19.191Z,3.50
2017-08-14T19:05:49.776Z,2.50
2017-08-14T19:08:22.947Z,3.00
2017-08-14T19:10:52.400Z,3.30
2017-08-14T19:13:23.968Z,3.70
2017-08-14T19:15:56.533Z,3.70
2017-08-14T19:18:27.066Z,3.17
2017-08-14T19:20:58.333Z,3.07
2017-08-14T19:23:34.586Z,2.87
2017-08-14T19:26:03.341Z,3.63
2017-08-14T19:28:31.858Z,3.03
2017-08-14T19:36:05.472Z,3.23
2017-08-14T19:38:38.979Z,3.40
2017-08-14T19:41:10.417Z,3.90
2017-08-14T19:43:41.135Z,3.30
2017-08-14T19:46:12.082Z,3.03
2017-08-14T19:48:40.207Z,2.40
2017-08-14T19:51:08.641Z,2.97
2017-08-14T19:53:36.685Z,3.20
2017-08-14T19:56:05.037Z,3.17
2017-08-14T19:58:35.745Z,3.33
2017-08-14T20:01:05.665Z,3.63
2017-08-14T20:03:34.168Z,3.37
2017-08-14T20:06:02.129Z,3.33
2017-08-14T20:08:29.988Z,3.30
2017-08-14T20:10:58.071Z,3.23
2017-08-14T20:13:26.089Z,3.10
2017-08-14T20:15:58.907Z,3.20
2017-08-14T20:18:26.654Z,3.53
2017-08-14T20:20:54.467Z,2.93
2017-08-14T20:23:23.045Z,3.50
2017-08-14T20:25:52.888Z,3.33
2017-08-14T20:28:22.038Z,3.20
2017-08-14T20:30:52.409Z,3.53
2017-08-14T20:33:22.501Z,3.10
2017-08-14T20:35:52.411Z,3.80
2017-08-14T20:38:20.193Z,3.33
2017-08-14T20:40:48.614Z,3.93
2017-08-14T20:43:16.341Z,3.53
2017-08-14T20:45:45.754Z,3.13
2017-08-14T20:48:13.532Z,3.57
2017-08-14T20:50:43.179Z,3.00
2017-08-14T20:53:11.034Z,3.20
2017-08-14T20:55:38.717Z,3.80
2017-08-14T20:58:06.979Z,3.10
2017-08-14T21:00:35.760Z,4.30
2017-08-14T21:03:04.666Z,3.87
2017-08-14T21:05:33.853Z,2.90
2017-08-14T21:08:02.850Z,3.00
2017-08-14T21:10:31.642Z,4.13
2017-08-14T21:12:59.551Z,3.37
2017-08-14T21:15:27.826Z,3.90
2017-08-14T21:17:56.079Z,4.20
2017-08-14T21:20:24.302Z,3.50
2017-08-14T21:22:52.204Z,3.43
2017-08-14T21:25:20.797Z,4.57
2017-08-14T21:27:48.596Z,3.80
2017-08-14T21:30:16.451Z,3.77
2017-08-14T21:32:44.398Z,3.90
2017-08-14T21:35:12.585Z,4.10
2017-08-14T21:37:40.885Z,3.27
2017-08-14T21:40:09.245Z,3.50
2017-08-14T21:42:38.441Z,2.83
2017-08-14T21:45:06.709Z,3.70
2017-08-14T21:47:34.420Z,3.37
2017-08-14T21:50:02.671Z,3.70
2017-08-14T21:52:31.020Z,3.50
2017-08-14T21:54:58.989Z,3.30
2017-08-14T21:57:26.831Z,3.07
2017-08-14T21:59:56.249Z,4.20
2017-08-14T22:02:27.267Z,3.63
2017-08-14T22:04:56.509Z,3.60
2017-08-14T22:07:26.952Z,3.33
2017-08-14T22:09:56.134Z,3.40
2017-08-14T22:12:25.372Z,3.30
2017-08-14T22:14:54.465Z,3.60
2017-08-14T22:17:23.388Z,2.93
2017-08-14T22:19:51.250Z,3.33
2017-08-14T22:22:19.120Z,3.10
2017-08-14T22:24:46.991Z,2.97
2017-08-14T22:27:14.856Z,3.50
2017-08-14T22:29:42.731Z,3.40
2017-08-14T22:32:10.507Z,2.97
2017-08-14T22:34:38.450Z,3.30
2017-08-14T22:37:06.316Z,3.67
2017-08-14T22:39:34.183Z,3.17
2017-08-14T22:42:01.906Z,3.53
2017-08-14T22:44:29.711Z,3.60
2017-08-14T22:46:57.475Z,3.10
2017-08-14T22:49:25.342Z,3.10
2017-08-14T22:51:53.123Z,3.70
2017-08-14T22:54:20.906Z,3.40
2017-08-14T22:56:49.457Z,3.63
2017-08-14T22:59:17.158Z,3.20
2017-08-14T23:01:45.824Z,2.87
2017-08-14T23:04:13.690Z,4.10
2017-08-14T23:06:41.537Z,3.30
2017-08-14T23:09:09.301Z,3.17
2017-08-14T23:11:37.066Z,3.50
2017-08-14T23:14:04.830Z,3.23
2017-08-14T23:16:32.566Z,3.17
2017-08-14T23:19:00.475Z,4.03
2017-08-14T23:21:28.335Z,3.50
2017-08-14T23:23:56.213Z,3.20
2017-08-14T23:26:24.091Z,3.20
2017-08-14T23:28:51.929Z,3.40
2017-08-14T23:31:19.647Z,3.10
2017-08-14T23:33:47.468Z,3.50
2017-08-14T23:36:15.221Z,3.80
2017-08-14T23:38:43.091Z,3.50
2017-08-14T23:41:10.961Z,3.50
2017-08-14T23:43:38.823Z,3.27
2017-08-14T23:46:06.703Z,3.60
2017-08-14T23:48:34.572Z,3.40
2017-08-14T23:51:02.435Z,3.00
2017-08-14T23:53:30.309Z,2.87
2017-08-14T23:55:58.155Z,3.23
2017-08-14T23:58:25.918Z,3.17
